createdAt,value
2018-06-20T00:00:21.709Z,43.26
2018-06-20T00:02:53.223Z,44.07
2018-06-20T00:05:25.713Z,44.21
2018-06-20T00:07:57.991Z,43.56
2018-06-20T00:10:33.241Z,43.51
2018-06-20T00:13:08.730Z,44.27
2018-06-20T00:15:40.196Z,43.74
2018-06-20T00:18:11.796Z,43.79
2018-06-20T00:20:46.635Z,44.14
2018-06-20T00:23:20.688Z,44.59
2018-06-20T00:25:54.689Z,44.53
2018-06-20T00:28:27.017Z,44.57
2018-06-20T00:31:00.387Z,44.76
2018-06-20T00:33:33.664Z,44.89
2018-06-20T00:36:05.387Z,44.56
2018-06-20T00:38:37.834Z,44.21
2018-06-20T00:41:11.130Z,43.88
2018-06-20T00:43:43.203Z,43.37
2018-06-20T00:46:16.544Z,44.30
2018-06-20T00:48:50.356Z,43.70
2018-06-20T00:51:21.696Z,44.27
2018-06-20T00:53:53.252Z,44.11
2018-06-20T00:56:27.640Z,43.80
2018-06-20T00:59:01.688Z,44.34
2018-06-20T01:01:33.191Z,43.93
2018-06-20T01:04:05.580Z,43.68
2018-06-20T01:06:37.896Z,43.94
2018-06-20T01:09:10.731Z,44.27
2018-06-20T01:11:42.372Z,44.56
2018-06-20T01:14:15.058Z,44.81
2018-06-20T01:16:46.519Z,44.68
2018-06-20T01:19:18.761Z,44.52
2018-06-20T01:21:50.254Z,44.41
2018-06-20T01:24:21.654Z,43.62
2018-06-20T01:26:53.977Z,43.94
2018-06-20T01:29:25.519Z,43.69
2018-06-20T01:31:57.725Z,44.25
2018-06-20T01:34:29.270Z,44.19
2018-06-20T01:37:00.873Z,44.08
2018-06-20T01:39:32.382Z,44.38
2018-06-20T01:42:03.781Z,45.02
2018-06-20T01:44:36.076Z,44.79
2018-06-20T01:47:08.175Z,44.84
2018-06-20T01:49:40.339Z,45.06
2018-06-20T01:52:11.547Z,44.86
2018-06-20T01:54:45.401Z,44.95
2018-06-20T01:57:17.002Z,44.94
2018-06-20T01:59:50.141Z,44.91
2018-06-20T02:02:21.572Z,44.78
2018-06-20T02:04:54.669Z,45.12
2018-06-20T02:07:27.017Z,45.35
2018-06-20T02:09:58.490Z,45.60
2018-06-20T02:12:33.548Z,46.46
2018-06-20T02:15:06.017Z,46.29
2018-06-20T02:17:37.225Z,45.59
2018-06-20T02:20:09.323Z,46.60
2018-06-20T02:22:41.359Z,46.56
2018-06-20T02:25:14.364Z,46.92
2018-06-20T02:27:46.848Z,46.61
2018-06-20T02:30:20.592Z,46.73
2018-06-20T02:32:52.206Z,45.88
2018-06-20T02:35:26.326Z,46.11
2018-06-20T02:37:57.540Z,46.26
2018-06-20T02:40:31.607Z,46.89
2018-06-20T02:43:03.202Z,46.49
2018-06-20T02:45:36.623Z,47.23
2018-06-20T02:48:10.147Z,47.21
2018-06-20T02:50:42.281Z,46.68
2018-06-20T02:53:13.759Z,47.03
2018-06-20T02:55:45.173Z,46.97
2018-06-20T02:58:16.522Z,47.14
2018-06-20T03:00:48.702Z,47.35
2018-06-20T03:03:21.043Z,47.48
2018-06-20T03:05:54.961Z,47.41
2018-06-20T03:08:29.211Z,47.52
2018-06-20T03:11:04.041Z,47.98
2018-06-20T03:13:36.357Z,47.21
2018-06-20T03:16:07.604Z,46.49
2018-06-20T03:18:40.280Z,46.66
2018-06-20T03:21:11.743Z,47.17
2018-06-20T03:23:43.193Z,47.40
2018-06-20T03:26:14.657Z,47.87
2018-06-20T03:28:46.216Z,47.66
2018-06-20T03:31:20.258Z,47.31
2018-06-20T03:33:53.212Z,47.58
2018-06-20T03:36:26.567Z,47.48
2018-06-20T03:38:58.320Z,47.65
2018-06-20T03:41:29.745Z,47.29
2018-06-20T03:44:08.129Z,47.54
2018-06-20T03:46:40.233Z,47.53
2018-06-20T03:49:11.596Z,47.47
2018-06-20T03:51:43.004Z,48.07
2018-06-20T03:54:15.096Z,47.86
2018-06-20T03:56:46.458Z,48.05
2018-06-20T03:59:19.332Z,48.23
2018-06-20T04:01:51.369Z,48.04
2018-06-20T04:04:24.386Z,47.83
2018-06-20T04:07:00.594Z,47.44
2018-06-20T04:09:31.777Z,47.52
2018-06-20T04:12:03.936Z,47.30
2018-06-20T04:14:35.331Z,47.71
2018-06-20T04:17:10.626Z,47.84
2018-06-20T04:19:58.103Z,48.04
2018-06-20T04:22:29.539Z,47.33
2018-06-20T04:25:01.962Z,46.12
2018-06-20T04:27:34.235Z,46.52
2018-06-20T04:30:06.911Z,45.85
2018-06-20T04:32:39.345Z,46.00
2018-06-20T04:35:11.695Z,46.99
2018-06-20T04:37:44.141Z,46.68
2018-06-20T04:40:15.624Z,46.10
2018-06-20T04:42:47.091Z,46.54
2018-06-20T04:45:19.803Z,46.07
2018-06-20T04:47:52.432Z,46.53
2018-06-20T04:50:27.782Z,45.62
2018-06-20T04:52:59.840Z,44.96
2018-06-20T04:55:32.079Z,44.92
2018-06-20T04:58:04.517Z,44.80
2018-06-20T05:00:39.380Z,44.40
2018-06-20T05:03:10.863Z,44.73
2018-06-20T05:05:43.267Z,43.86
2018-06-20T05:08:16.267Z,43.34
2018-06-20T05:10:48.063Z,42.77
2018-06-20T05:13:20.264Z,41.64
2018-06-20T05:15:53.196Z,40.63
2018-06-20T05:18:25.467Z,41.47
2018-06-20T05:20:57.512Z,41.36
2018-06-20T05:23:28.929Z,40.77
2018-06-20T05:26:00.395Z,40.66
2018-06-20T05:28:31.850Z,39.89
2018-06-20T05:31:03.360Z,40.52
2018-06-20T05:33:36.694Z,40.57
2018-06-20T05:36:09.085Z,39.92
2018-06-20T05:38:40.412Z,39.41
2018-06-20T05:41:11.956Z,39.83
2018-06-20T05:43:44.373Z,39.71
2018-06-20T05:46:15.588Z,39.74
2018-06-20T05:48:47.041Z,39.40
2018-06-20T05:51:19.415Z,38.48
2018-06-20T05:53:50.900Z,38.00
2018-06-20T05:56:22.583Z,37.85
2018-06-20T05:58:54.032Z,36.73
2018-06-20T06:01:26.392Z,35.76
2018-06-20T06:03:57.883Z,34.26
2018-06-20T06:06:29.478Z,34.22
2018-06-20T06:09:01.894Z,33.93
2018-06-20T06:11:33.911Z,33.32
2018-06-20T06:14:06.820Z,33.30
2018-06-20T06:16:38.887Z,32.71
2018-06-20T06:19:12.683Z,31.39
2018-06-20T06:21:46.016Z,31.56
2018-06-20T06:24:17.800Z,30.64
2018-06-20T06:26:49.249Z,30.32
2018-06-20T06:29:22.636Z,30.45
2018-06-20T06:31:56.422Z,30.53
2018-06-20T06:34:29.858Z,28.46
2018-06-20T06:37:03.239Z,28.80
2018-06-20T06:39:35.363Z,28.59
2018-06-20T06:42:09.775Z,28.11
2018-06-20T06:44:41.308Z,27.40
2018-06-20T06:47:13.629Z,27.65
2018-06-20T06:49:45.126Z,28.29
2018-06-20T06:52:16.831Z,26.42
2018-06-20T06:54:48.282Z,26.73
2018-06-20T06:57:19.740Z,25.96
2018-06-20T06:59:51.434Z,25.36
2018-06-20T07:02:23.794Z,24.86
2018-06-20T07:04:55.353Z,25.04
2018-06-20T07:07:28.294Z,25.53
2018-06-20T07:09:59.755Z,24.90
2018-06-20T07:12:32.060Z,23.74
2018-06-20T07:15:08.604Z,23.17
2018-06-20T07:17:43.448Z,24.14
2018-06-20T07:20:15.868Z,24.65
2018-06-20T07:22:48.284Z,23.46
2018-06-20T07:25:23.192Z,23.03
2018-06-20T07:27:57.903Z,22.55
2018-06-20T07:30:30.822Z,23.12
2018-06-20T07:33:02.389Z,22.12
2018-06-20T07:35:34.925Z,21.91
2018-06-20T07:40:46.162Z,22.73
2018-06-20T07:43:21.067Z,22.66
2018-06-20T07:45:54.285Z,22.41
2018-06-20T07:48:25.849Z,21.51
2018-06-20T07:50:58.735Z,21.31
2018-06-20T07:53:32.029Z,21.74
2018-06-20T07:56:05.369Z,21.34
2018-06-20T07:58:45.597Z,21.23
2018-06-20T08:01:33.849Z,21.32
2018-06-20T08:04:12.713Z,21.41
2018-06-20T08:06:52.082Z,20.76
2018-06-20T08:09:30.367Z,20.96
2018-06-20T08:12:10.234Z,20.25
2018-06-20T08:14:49.651Z,20.33
2018-06-20T08:17:28.357Z,20.95
2018-06-20T08:20:02.310Z,20.92
2018-06-20T08:22:36.376Z,20.57
2018-06-20T08:25:09.628Z,19.92
2018-06-20T08:27:43.555Z,20.06
2018-06-20T08:30:18.772Z,20.04
2018-06-20T08:32:51.193Z,20.20
2018-06-20T08:35:33.312Z,21.53
2018-06-20T08:38:07.638Z,22.40
2018-06-20T08:40:41.684Z,22.32
2018-06-20T08:43:14.771Z,22.56
2018-06-20T08:45:48.196Z,22.33
2018-06-20T08:48:21.702Z,23.01
2018-06-20T08:50:57.077Z,23.40
2018-06-20T08:53:31.706Z,24.00
2018-06-20T08:56:06.126Z,24.01
2018-06-20T08:58:39.457Z,23.28
2018-06-20T09:01:14.249Z,24.56
2018-06-20T09:03:48.376Z,24.45
2018-06-20T09:06:29.129Z,23.79
2018-06-20T09:09:08.746Z,22.85
2018-06-20T09:18:16.672Z,22.45
2018-06-20T09:20:49.959Z,23.81
2018-06-20T09:23:23.248Z,23.27
2018-06-20T09:26:01.634Z,23.16
2018-06-20T09:28:35.023Z,23.46
2018-06-20T09:31:08.444Z,22.69
2018-06-20T09:33:41.735Z,22.48
2018-06-20T09:36:15.034Z,22.78
2018-06-20T09:38:48.302Z,22.75
2018-06-20T09:41:21.825Z,21.57
2018-06-20T09:43:58.395Z,22.41
2018-06-20T09:46:31.541Z,22.65
2018-06-20T09:49:04.857Z,22.10
2018-06-20T09:51:38.268Z,22.30
2018-06-20T09:54:12.425Z,22.66
2018-06-20T09:56:47.208Z,21.82
2018-06-20T09:59:28.222Z,21.66
2018-06-20T10:02:07.484Z,21.15
2018-06-20T10:04:48.345Z,21.95
2018-06-20T10:07:30.444Z,21.63
2018-06-20T10:10:08.760Z,22.14
2018-06-20T10:12:48.160Z,20.85
2018-06-20T10:15:22.681Z,20.78
2018-06-20T10:17:57.716Z,20.68
2018-06-20T10:20:32.529Z,20.24
2018-06-20T10:23:07.365Z,20.00
2018-06-20T10:25:41.886Z,19.80
2018-06-20T10:28:15.165Z,20.05
2018-06-20T10:30:49.356Z,20.80
2018-06-20T10:33:23.741Z,20.51
2018-06-20T10:35:59.243Z,20.96
2018-06-20T10:38:33.552Z,20.98
2018-06-20T10:41:08.758Z,21.05
2018-06-20T10:43:42.053Z,20.93
2018-06-20T10:46:21.852Z,20.17
2018-06-20T10:48:57.500Z,20.90
2018-06-20T10:51:33.611Z,21.60
2018-06-20T10:54:09.420Z,22.16
2018-06-20T10:56:47.744Z,21.49
2018-06-20T10:59:26.220Z,21.87
2018-06-20T11:02:05.629Z,21.58
2018-06-20T11:04:45.464Z,21.28
2018-06-20T11:07:24.238Z,21.53
2018-06-20T11:10:02.287Z,21.74
2018-06-20T11:12:42.278Z,21.02
2018-06-20T11:15:17.688Z,20.30
2018-06-20T11:17:53.194Z,19.88
2018-06-20T11:20:35.077Z,20.21
2018-06-20T11:23:13.407Z,20.17
2018-06-20T11:25:46.970Z,19.09
2018-06-20T11:28:22.261Z,18.92
2018-06-20T11:30:57.537Z,19.28
2018-06-20T11:33:30.776Z,18.60
2018-06-20T11:36:04.478Z,18.92
2018-06-20T11:38:38.404Z,17.96
2018-06-20T11:41:11.789Z,18.41
2018-06-20T11:43:46.176Z,18.11
2018-06-20T11:46:24.489Z,17.91
2018-06-20T11:48:58.580Z,17.90
2018-06-20T11:51:34.121Z,18.58
2018-06-20T11:54:15.532Z,18.09
2018-06-20T11:56:48.612Z,19.34
2018-06-20T11:59:27.265Z,20.33
2018-06-20T12:02:08.563Z,20.16
2018-06-20T12:04:48.802Z,19.39
2018-06-20T12:07:29.852Z,19.51
2018-06-20T12:10:15.001Z,19.50
2018-06-20T12:12:58.399Z,19.70
2018-06-20T12:15:39.198Z,20.93
2018-06-20T12:18:20.219Z,21.42
2018-06-20T12:20:58.266Z,20.40
2018-06-20T12:23:36.962Z,20.09
2018-06-20T12:26:38.487Z,19.73
2018-06-20T12:29:16.853Z,19.00
2018-06-20T12:31:55.761Z,19.49
2018-06-20T12:34:52.280Z,18.44
2018-06-20T12:37:32.794Z,19.20
2018-06-20T12:40:13.718Z,19.43
2018-06-20T12:42:52.911Z,19.27
2018-06-20T12:45:27.205Z,18.31
2018-06-20T12:48:04.207Z,18.11
2018-06-20T12:50:43.964Z,18.89
2018-06-20T12:53:16.594Z,18.47
2018-06-20T12:55:49.793Z,17.98
2018-06-20T12:58:21.364Z,18.34
2018-06-20T13:00:55.114Z,17.40
2018-06-20T13:03:30.691Z,17.83
2018-06-20T13:06:05.457Z,17.76
2018-06-20T13:08:42.524Z,17.26
2018-06-20T13:11:15.416Z,17.25
2018-06-20T13:13:46.243Z,16.44
2018-06-20T13:16:19.727Z,17.16
2018-06-20T13:19:00.551Z,18.16
2018-06-20T13:21:33.513Z,17.01
2018-06-20T13:24:07.522Z,17.19
2018-06-20T13:26:39.151Z,17.68
2018-06-20T13:29:15.306Z,16.56
2018-06-20T13:31:53.625Z,16.06
2018-06-20T13:37:12.767Z,16.64
2018-06-20T13:39:50.152Z,15.78
2018-06-20T13:42:27.817Z,15.73
2018-06-20T13:45:04.549Z,15.80
2018-06-20T13:47:42.783Z,15.95
2018-06-20T13:50:16.945Z,16.39
2018-06-20T13:52:50.708Z,16.57
2018-06-20T13:55:25.644Z,17.22
2018-06-20T13:58:01.434Z,17.28
2018-06-20T14:00:36.956Z,18.37
2018-06-20T14:03:13.936Z,16.87
2018-06-20T14:05:48.526Z,17.13
2018-06-20T14:08:23.508Z,16.33
2018-06-20T14:10:57.802Z,15.48
2018-06-20T14:13:32.044Z,16.05
2018-06-20T14:16:05.368Z,16.48
2018-06-20T14:18:39.419Z,16.39
2018-06-20T14:21:20.408Z,15.22
2018-06-20T14:23:57.479Z,15.24
2018-06-20T14:26:31.690Z,15.47
2018-06-20T14:29:05.739Z,16.04
2018-06-20T14:31:44.165Z,16.33
2018-06-20T14:36:27.366Z,15.98
2018-06-20T14:39:05.787Z,16.11
2018-06-20T14:41:46.138Z,15.50
2018-06-20T14:44:20.223Z,14.54
2018-06-20T14:46:57.044Z,15.38
2018-06-20T14:49:31.332Z,15.74
2018-06-20T14:52:06.293Z,15.34
2018-06-20T14:54:39.683Z,15.44
2018-06-20T14:57:15.092Z,15.92
2018-06-20T14:59:50.638Z,16.19
2018-06-20T15:02:27.665Z,16.05
2018-06-20T15:05:01.026Z,17.16
2018-06-20T15:07:36.452Z,16.51
2018-06-20T15:10:11.095Z,16.32
2018-06-20T15:12:45.139Z,16.10
2018-06-20T15:15:33.234Z,15.61
2018-06-20T15:18:08.609Z,15.14
2018-06-20T15:20:41.981Z,15.94
2018-06-20T15:23:16.117Z,15.62
2018-06-20T15:25:54.523Z,15.42
2018-06-20T15:28:38.471Z,16.33
2018-06-20T15:31:18.523Z,15.48
2018-06-20T15:33:59.305Z,16.43
2018-06-20T15:36:37.696Z,16.28
2018-06-20T15:39:13.637Z,16.22
2018-06-20T15:41:48.833Z,16.85
2018-06-20T15:44:23.553Z,17.02
2018-06-20T15:46:57.659Z,16.72
2018-06-20T15:49:31.153Z,16.75
2018-06-20T15:52:07.016Z,17.31
2018-06-20T15:54:43.748Z,16.76
2018-06-20T15:57:18.616Z,17.66
2018-06-20T15:59:53.345Z,16.71
2018-06-20T16:02:41.491Z,16.79
2018-06-20T16:05:16.804Z,15.82
2018-06-20T16:07:55.680Z,16.38
2018-06-20T16:10:31.041Z,16.17
2018-06-20T16:13:09.515Z,16.85
2018-06-20T16:15:46.350Z,16.93
2018-06-20T16:21:16.337Z,16.35
2018-06-20T16:24:00.051Z,17.03
2018-06-20T16:29:50.401Z,16.37
2018-06-20T16:32:45.186Z,17.03
2018-06-20T16:35:34.310Z,16.99
2018-06-20T16:38:27.154Z,16.79
2018-06-20T16:41:25.636Z,17.45
2018-06-20T16:46:53.319Z,17.38
2018-06-20T16:49:32.059Z,17.22
2018-06-20T16:52:22.738Z,17.41
2018-06-20T16:55:11.377Z,17.07
2018-06-20T16:57:53.274Z,17.91
2018-06-20T17:00:46.367Z,17.83
2018-06-20T17:03:31.822Z,17.15
2018-06-20T17:06:10.249Z,18.05
2018-06-20T17:08:56.453Z,18.08
2018-06-20T17:20:40.634Z,18.35
2018-06-20T17:23:22.284Z,18.25
2018-06-20T17:29:40.602Z,17.97
2018-06-20T17:35:28.748Z,17.62
2018-06-20T17:38:17.287Z,18.56
2018-06-20T17:41:18.762Z,18.24
2018-06-20T17:44:20.222Z,18.21
2018-06-20T17:47:20.052Z,18.52
2018-06-20T17:50:08.187Z,18.22
2018-06-20T17:52:51.014Z,18.16
2018-06-20T17:55:37.505Z,18.36
2018-06-20T17:58:22.581Z,19.06
2018-06-20T18:04:29.653Z,19.07
2018-06-20T18:10:25.237Z,20.33
2018-06-20T18:13:25.306Z,20.85
2018-06-20T18:16:07.827Z,21.81
2018-06-20T18:18:56.264Z,22.27
2018-06-20T18:21:39.225Z,22.57
2018-06-20T18:24:53.693Z,22.67
2018-06-20T18:29:17.370Z,23.69
2018-06-20T18:36:16.801Z,24.29
2018-06-20T18:39:07.663Z,24.75
2018-06-20T18:42:36.065Z,25.10
2018-06-20T18:45:25.854Z,25.75
2018-06-20T18:48:18.332Z,26.22
2018-06-20T18:51:13.194Z,25.94
2018-06-20T18:54:01.638Z,26.04
2018-06-20T18:56:50.774Z,26.55
2018-06-20T18:59:48.760Z,26.24
2018-06-20T19:05:30.398Z,25.98
2018-06-20T19:08:24.873Z,26.05
2018-06-20T19:11:12.917Z,26.08
2018-06-20T19:17:04.403Z,25.84
2018-06-20T19:19:57.826Z,25.47
2018-06-20T19:22:50.225Z,25.75
2018-06-20T19:25:45.068Z,27.36
2018-06-20T19:28:32.579Z,27.09
2018-06-20T19:31:28.378Z,28.30
2018-06-20T19:34:33.962Z,28.60
2018-06-20T19:37:27.294Z,28.67
2018-06-20T19:40:14.080Z,28.54
2018-06-20T19:43:23.165Z,29.40
2018-06-20T19:46:09.654Z,29.90
2018-06-20T19:49:11.347Z,29.89
2018-06-20T19:52:18.213Z,30.47
2018-06-20T19:55:13.497Z,30.39
2018-06-20T20:00:44.593Z,31.62
2018-06-20T20:03:37.514Z,31.82
2018-06-20T20:09:30.399Z,32.04
2018-06-20T20:12:20.286Z,32.36
2018-06-20T20:15:16.985Z,32.69
2018-06-20T20:23:56.146Z,32.92
2018-06-20T20:26:44.879Z,33.03
2018-06-20T20:29:28.198Z,32.51
2018-06-20T20:32:26.333Z,33.00
2018-06-20T20:35:34.710Z,33.55
2018-06-20T20:39:11.178Z,33.83
2018-06-20T20:45:07.350Z,33.77
2018-06-20T20:47:58.010Z,33.66
2018-06-20T20:50:47.231Z,34.05
2018-06-20T20:53:46.250Z,34.24
2018-06-20T20:56:57.749Z,34.43
2018-06-20T20:59:50.617Z,34.55
2018-06-20T21:02:38.785Z,34.26
2018-06-20T21:05:40.576Z,33.98
2018-06-20T21:08:43.353Z,34.66
2018-06-20T21:11:25.569Z,34.36
2018-06-20T21:14:14.431Z,34.15
2018-06-20T21:17:01.756Z,33.33
2018-06-20T21:20:11.348Z,33.87
2018-06-20T21:22:47.691Z,34.12
2018-06-20T21:25:23.317Z,34.67
2018-06-20T21:28:07.577Z,35.37
2018-06-20T21:30:51.342Z,34.72
2018-06-20T21:36:32.379Z,35.94
2018-06-20T21:39:24.966Z,35.85
2018-06-20T21:42:07.656Z,35.95
2018-06-20T21:48:12.481Z,35.15
2018-06-20T21:50:53.801Z,35.15
2018-06-20T21:53:33.800Z,34.57
2018-06-20T21:56:19.516Z,35.04
2018-06-20T21:59:00.182Z,35.14
2018-06-20T22:02:09.491Z,35.08
2018-06-20T22:05:00.535Z,35.07
2018-06-20T22:07:42.724Z,34.85
2018-06-20T22:10:23.855Z,35.69
2018-06-20T22:16:38.388Z,36.02
2018-06-20T22:19:36.393Z,36.00
2018-06-20T22:25:23.767Z,35.33
2018-06-20T22:28:06.776Z,36.00
2018-06-20T22:30:50.256Z,35.54
2018-06-20T22:36:20.783Z,35.06
2018-06-20T22:38:57.400Z,35.42
2018-06-20T22:41:43.722Z,36.16
2018-06-20T22:44:28.908Z,36.18
2018-06-20T22:47:30.923Z,35.72
2018-06-20T22:50:21.578Z,35.94
2018-06-20T22:53:04.895Z,36.47
2018-06-20T22:59:15.740Z,36.17
2018-06-20T23:01:55.371Z,35.63
2018-06-20T23:04:41.556Z,36.48
2018-06-20T23:07:32.710Z,35.56
2018-06-20T23:10:17.775Z,36.30
2018-06-20T23:16:22.293Z,36.58
2018-06-20T23:19:12.386Z,37.17
2018-06-20T23:24:40.468Z,36.60
2018-06-20T23:27:32.512Z,35.84
2018-06-20T23:30:22.493Z,35.70
2018-06-20T23:33:05.278Z,35.52
2018-06-20T23:35:57.212Z,34.98
2018-06-20T23:38:42.940Z,35.49
2018-06-20T23:44:29.820Z,33.89
2018-06-20T23:47:13.968Z,34.08
2018-06-20T23:50:03.191Z,33.79
2018-06-20T23:52:46.207Z,34.19
2018-06-20T23:55:45.648Z,34.21
2018-06-20T23:58:27.901Z,34.17
